»·PEaware :: N143VT KSBP-KAPC

N143VT :: KSBP-KAPC

FLIGHT INFORMATION

Flight Status: Arrived
Operator: Privately registered:
United States
More flights under this callsign
Pilot: Anonymous 16492 (16492)
Aircraft: ECLIPSE 500
(EA50)
More flights by this aircraft type
Origin: KSBP San Luis Co Regl
United States
Destination: KAPC Napa Co
United States
More flights between these airports :: More routes between these airports
Route: +CREPE3 PRB V25 SFO SAU
File this flight plan on PilotEdge
Remarks:
Altitude:
(Current/Filed)
30,000ft
Speed:
(Current/Filed)
330kts
Departed: 09-Oct-18 06:05 PM
Arrived: 09-Oct-18 07:24 PM
Distance/Time
Traveled:
195nm/1:19
Distance/Time
To Go:
Arrived

Flight Plot

Page will automatically refresh every two minutes.

Flight plan parsing failed; only flown route is shown


Map Options




Map Legend


Flown Route
Filed Route
Departure Airport
Arrival Airport
Navaid (VOR, NDB)
Fix

Horizontal Profiles

Position Reports

Time Latitude Longitude Heading Altitude Ground
Speed
09-Oct-18 17:54 35.237751 -120.638210 270 214ft 0kts
09-Oct-18 17:55 35.237751 -120.638210 270 214ft 0kts
09-Oct-18 17:56 35.237751 -120.638210 270 214ft 0kts
09-Oct-18 17:57 35.237751 -120.638210 270 214ft 0kts
09-Oct-18 17:58 35.237751 -120.638210 270 214ft 0kts
09-Oct-18 17:59 35.237599 -120.638457 229 214ft 0kts
09-Oct-18 18:00 35.236899 -120.638070 123 214ft 4kts
09-Oct-18 18:01 35.235492 -120.635641 125 214ft 13kts
09-Oct-18 18:02 35.234096 -120.633159 124 214ft 2kts
09-Oct-18 18:03 35.233788 -120.632607 128 214ft 4kts
09-Oct-18 18:04 35.233254 -120.632260 211 214ft 0kts
09-Oct-18 18:05 35.233254 -120.632260 211 214ft 0kts
09-Oct-18 18:06 35.232959 -120.632495 217 214ft 7kts
09-Oct-18 18:07 35.238354 -120.642697 305 339ft 111kts
09-Oct-18 18:08 35.259987 -120.684072 302 2646ft 158kts
09-Oct-18 18:09 35.282963 -120.729894 302 5090ft 162kts
09-Oct-18 18:10 35.317591 -120.747311 12 7319ft 170kts
09-Oct-18 18:11 35.369931 -120.728889 13 8876ft 209kts
09-Oct-18 18:12 35.418794 -120.712140 12 11514ft 178kts
09-Oct-18 18:13 35.466381 -120.696080 12 13378ft 181kts
09-Oct-18 18:14 35.514585 -120.679895 11 15063ft 185kts
09-Oct-18 18:15 35.564616 -120.663147 10 16652ft 189kts
09-Oct-18 18:16 35.615731 -120.646051 10 18128ft 193kts
09-Oct-18 18:17 35.667475 -120.631445 342 19473ft 191kts
09-Oct-18 18:18 35.710864 -120.667895 323 20762ft 193kts
09-Oct-18 18:19 35.753919 -120.707658 322 21976ft 196kts
09-Oct-18 18:20 35.797065 -120.748678 321 23113ft 198kts
09-Oct-18 18:21 35.840715 -120.790756 321 24171ft 201kts
09-Oct-18 18:22 35.884860 -120.833604 320 25152ft 204kts
09-Oct-18 18:23 35.929435 -120.877026 320 26067ft 206kts
09-Oct-18 18:24 35.974670 -120.921212 320 26925ft 209kts
09-Oct-18 18:25 36.020360 -120.965932 319 27719ft 211kts
09-Oct-18 18:26 36.066644 -121.011302 319 28438ft 214kts
09-Oct-18 18:27 36.110190 -121.054052 319 29062ft 218kts
09-Oct-18 18:28 36.157610 -121.100673 318 29719ft 221kts
09-Oct-18 18:29 36.206853 -121.149202 318 29996ft 239kts
09-Oct-18 18:30 36.260143 -121.201801 319 30000ft 255kts
09-Oct-18 18:31 36.313541 -121.254563 319 29999ft 256kts
09-Oct-18 18:32 36.358619 -121.299188 319 29998ft 256kts
09-Oct-18 18:33 36.424927 -121.365034 320 28418ft 273kts
09-Oct-18 18:34 36.482469 -121.422307 321 25089ft 265kts
09-Oct-18 18:35 36.534914 -121.474526 322 22985ft 230kts
09-Oct-18 18:36 36.583209 -121.522687 323 20997ft 224kts
09-Oct-18 18:37 36.622796 -121.562200 323 20008ft 230kts
09-Oct-18 18:38 36.682879 -121.632493 313 20000ft 286kts
09-Oct-18 18:39 36.726958 -121.697061 312 20000ft 308kts
09-Oct-18 18:40 36.783276 -121.780417 312 20004ft 323kts
09-Oct-18 18:41 36.838734 -121.862939 312 20012ft 314kts
09-Oct-18 18:42 36.894469 -121.946120 312 20015ft 316kts
09-Oct-18 18:43 36.950377 -122.029794 312 20014ft 316kts
09-Oct-18 18:44 37.020872 -122.091335 336 18996ft 318kts
09-Oct-18 18:45 37.098220 -122.132070 337 16969ft 300kts
09-Oct-18 18:46 37.171876 -122.169699 337 15043ft 293kts
09-Oct-18 18:47 37.246009 -122.207230 338 13053ft 285kts
09-Oct-18 18:48 37.317425 -122.243320 338 11982ft 281kts
09-Oct-18 18:49 37.389046 -122.279446 340 11976ft 281kts
09-Oct-18 18:50 37.459754 -122.308537 342 11976ft 280kts
09-Oct-18 18:51 37.531757 -122.337994 342 11975ft 280kts
09-Oct-18 18:52 37.602579 -122.366963 342 11974ft 280kts
09-Oct-18 18:53 37.671001 -122.406777 334 11971ft 280kts
09-Oct-18 18:54 37.739642 -122.449743 334 11970ft 280kts
09-Oct-18 18:55 37.807530 -122.492486 333 10974ft 260kts
09-Oct-18 18:56 37.876124 -122.540373 288 10949ft 221kts
09-Oct-18 18:57 37.843158 -122.575046 173 10307ft 226kts
09-Oct-18 18:58 37.785364 -122.562000 158 8794ft 213kts
09-Oct-18 18:59 37.797223 -122.508935 353 7360ft 216kts
09-Oct-18 19:00 37.865342 -122.520264 325 6952ft 213kts
09-Oct-18 19:01 37.855496 -122.564624 185 6958ft 222kts
09-Oct-18 19:02 37.794320 -122.555586 176 6293ft 220kts
09-Oct-18 19:03 37.759463 -122.520649 62 5979ft 188kts
09-Oct-18 19:04 37.805027 -122.523332 351 5965ft 194kts
09-Oct-18 19:05 37.859664 -122.522505 352 5954ft 198kts
09-Oct-18 19:06 37.856523 -122.562290 178 5962ft 196kts
09-Oct-18 19:07 37.802422 -122.553408 176 5962ft 199kts
09-Oct-18 19:08 37.756792 -122.525767 93 5977ft 210kts
09-Oct-18 19:09 37.798423 -122.506273 326 5970ft 189kts
09-Oct-18 19:10 37.848917 -122.523346 356 5957ft 198kts
09-Oct-18 19:11 37.871434 -122.479837 143 5959ft 203kts
09-Oct-18 19:12 37.819072 -122.467621 176 5969ft 204kts
09-Oct-18 19:13 37.787204 -122.497237 303 5975ft 189kts
09-Oct-18 19:14 37.837581 -122.519385 348 4789ft 198kts
09-Oct-18 19:15 37.889292 -122.523767 357 3755ft 180kts
09-Oct-18 19:16 37.943575 -122.525723 358 3751ft 201kts
09-Oct-18 19:17 37.998208 -122.527558 358 3759ft 204kts
09-Oct-18 19:18 38.054991 -122.529500 358 3686ft 235kts
09-Oct-18 19:19 38.126250 -122.531673 3 2766ft 240kts
09-Oct-18 19:20 38.164489 -122.474790 64 1737ft 222kts
09-Oct-18 19:21 38.181458 -122.417171 69 1647ft 141kts
09-Oct-18 19:22 38.191238 -122.380501 57 1695ft 103kts
09-Oct-18 19:23 38.198240 -122.332220 93 955ft 157kts
09-Oct-18 19:24 38.200053 -122.283278 86 583ft 121kts
09-Oct-18 19:25 38.208842 -122.257255 315 284ft 84kts
09-Oct-18 19:26 38.208809 -122.282532 255 38ft 17kts
09-Oct-18 19:27 38.208811 -122.288450 65 38ft 10kts
09-Oct-18 19:28 38.209902 -122.282777 77 38ft 24kts
09-Oct-18 19:29 38.211398 -122.274767 76 38ft 15kts
09-Oct-18 19:30 38.213816 -122.273504 331 38ft 23kts
09-Oct-18 19:31 38.215808 -122.273808 252 38ft 0kts
09-Oct-18 19:32 38.215783 -122.273876 246 38ft 0kts
09-Oct-18 19:33 38.215783 -122.273876 246 38ft 0kts
09-Oct-18 19:34 38.215783 -122.273876 246 38ft 0kts
09-Oct-18 19:35 38.215783 -122.273876 246 38ft 0kts
09-Oct-18 19:36 38.215783 -122.273876 246 38ft 0kts
09-Oct-18 19:37 38.215783 -122.273876 246 38ft 0kts
09-Oct-18 19:38 38.215783 -122.273876 246 38ft 0kts
09-Oct-18 19:39 38.215783 -122.273876 246 38ft 0kts
09-Oct-18 19:40 38.215782 -122.273878 246 38ft 0kts

Navigation Log

Ident Type
Flight plan parsing failed, navigation log unavailable